• Join FlightAware (Why Join?)
  • Login
  • US Flag 
04:48AM EDT


 

Airport Tracker/Info


-or-


 

Live Flight TrackerFlight Track Log ✈ N800JH ✈ 12-Jun-2013 ✈ KTEB - KEGE

Flight Track Log - Related Links

Times and Time Zones

All times are in EDT time to prevent confusion due to time zone crossing. See the N800JH flight status page for this flight to view local times or setup timezone preferences in your user account.

Time Position Orientation Groundspeed Altitude Reporting Facility
EDT Latitude Longitude Course Direction KTS MPH feet Rate Location/Type
05:40PM 40.9000 -74.0333 294° West 210 242 1,800  Level New York TRACON
05:41PM 40.9167 -74.0833 294° West 239 275 3,700 2,160 Climbing New York TRACON
05:42PM 40.9167 -74.1833 270° West 255 293 6,000 2,040 Climbing New York TRACON
05:43PM 40.9167 -74.2833 270° West 260 299 7,800 1,980 Climbing New York TRACON
05:44PM 40.9167 -74.3833 270° West 267 307 10,200 2,520 Climbing New York TRACON
05:45PM 40.9167 -74.4833 270° West 309 356 12,900 2,940 Climbing New York TRACON
05:46PM 40.9167 -74.6167 270° West 337 388 16,400 1,800 Climbing New York TRACON
05:47PM 40.9214 -74.7558 273° West 352 405 17,000 240 Climbing New York Center
05:48PM 40.9197 -74.8683 269° West 352 405 17,000 1,320 Level New York Center
05:49PM 40.9189 -75.0083 270° West 347 399 19,600 2,880 Climbing New York Center
05:50PM 40.9161 -75.1425 268° West 362 417 22,700 3,000 Climbing New York Center
05:51PM 40.8947 -75.2647 257° West 373 429 25,700 3,000 Climbing New York Center
05:52PM 40.8689 -75.4003 256° West 384 442 28,800 2,520 Climbing New York Center
05:53PM 40.8342 -75.5406 252° West 390 449 30,900 1,740 Climbing New York Center
05:54PM 40.7986 -75.6917 253° West 403 464 32,300 1,500 Climbing New York Center
05:55PM 40.7583 -75.8586 252° West 423 487 33,900 1,860 Climbing New York Center
05:56PM 40.7181 -76.0172 252° West 449 517 36,100 2,220 Climbing New York Center
05:57PM 40.6797 -76.1728 252° West 449 517 38,400 1,980 Climbing New York Center
05:58PM 40.6706 -76.3256 266° West 434 499 40,100 1,560 Climbing New York Center
05:59PM 40.6925 -76.4778 281° West 425 489 41,600 1,380 Climbing New York Center
06:00PM 40.7103 -76.6272 279° West 425 489 43,000 660 Climbing New York Center
06:01PM 40.7300 -76.7739 280° West 420 483 43,000  Level New York Center
06:02PM 40.7492 -76.9264 279° West 415 478 43,000  Level New York Center
06:03PM 40.7678 -77.0869 279° West 420 483 43,000  Level New York Center
06:04PM 40.7883 -77.2453 280° West 432 497 43,000  Level New York Center
06:06PM 40.8147 -77.5458 277° West 443 510 43,000  Level Cleveland Center
06:07PM 40.8294 -77.7072 277° West 443 510 43,000  Level Cleveland Center
06:08PM 40.8436 -77.8658 277° West 443 510 43,000  Level Cleveland Center
06:09PM 40.8578 -78.0244 277° West 443 510 43,000  Level Cleveland Center
06:10PM 40.8694 -78.1833 276° West 438 504 43,000  Level Cleveland Center
06:11PM 40.8853 -78.3419 278° West 443 510 43,000  Level Cleveland Center
06:12PM 40.8967 -78.5064 275° West 443 510 43,000  Level Cleveland Center
06:13PM 40.9100 -78.6681 276° West 443 510 43,000  Level Cleveland Center
06:14PM 40.9208 -78.8189 275° West 448 516 43,000  Level Cleveland Center
06:15PM 40.9361 -79.0108 276° West 448 516 43,000  Level Cleveland Center
06:16PM 40.9486 -79.1756 276° West 448 516 43,000  Level Cleveland Center
06:17PM 40.9608 -79.3375 276° West 448 516 43,000  Level Cleveland Center
06:18PM 40.9708 -79.4997 275° West 448 516 43,000  Level Cleveland Center
06:19PM 40.9828 -79.6617 276° West 448 516 43,000  Level Cleveland Center
06:20PM 40.9922 -79.8267 274° West 448 516 43,000  Level Cleveland Center
06:21PM 41.0036 -79.9889 275° West 443 510 43,000  Level Cleveland Center
06:22PM 41.0147 -80.1511 275° West 443 510 43,000  Level Cleveland Center
06:23PM 41.0236 -80.3133 274° West 443 510 43,000  Level Cleveland Center
06:24PM 41.0364 -80.4758 276° West 443 510 43,000  Level Cleveland Center
06:25PM 41.0447 -80.6408 274° West 443 510 43,000  Level Cleveland Center
06:26PM 41.0550 -80.8061 275° West 443 510 43,000  Level Cleveland Center
06:27PM 41.0631 -80.9714 274° West 443 510 43,000  Level Cleveland Center
06:28PM 41.0706 -81.1394 273° West 448 516 43,000  Level Cleveland Center
06:29PM 41.0800 -81.3075 274° West 453 521 43,000  Level Cleveland Center
06:30PM 41.0872 -81.4731 273° West 459 528 43,000  Level Cleveland Center
06:31PM 41.0919 -81.6383 272° West 459 528 43,000  Level Cleveland Center
06:32PM 41.1008 -81.8092 274° West 459 528 43,000  Level Cleveland Center
06:33PM 41.1094 -81.9611 274° West 459 528 43,000  Level Cleveland Center
06:34PM 41.1283 -82.1214 279° West 459 528 43,000  Level Cleveland Center
06:35PM 41.1614 -82.2822 285° West 459 528 43,000  Level Cleveland Center
06:36PM 41.1942 -82.4486 285° West 459 528 43,000  Level Cleveland Center
06:37PM 41.2331 -82.6236 287° West 452 520 43,000  Level Cleveland Center
06:38PM 41.2656 -82.7819 285° West 452 520 43,000  Level Cleveland Center
06:39PM 41.3000 -82.9381 286° West 452 520 43,000  Level Cleveland Center
06:40PM 41.3361 -83.0969 287° West 447 514 43,000  Level Cleveland Center
06:41PM 41.3725 -83.2367 289° West 447 514 43,000  Level Cleveland Center
06:42PM 41.4147 -83.3908 290° West 447 514 43,000 180 Level Cleveland Center
06:43PM 41.4525 -83.5478 288° West 447 514 43,400  Climbing Cleveland Center
06:44PM 41.4544 -83.7111 271° West 442 509 43,000 -240 Descending Cleveland Center
06:45PM 41.4581 -83.8778 272° West 447 514 43,000  Level Cleveland Center
06:46PM 41.4678 -84.0444 275° West 447 514 43,000  Level Cleveland Center
06:47PM 41.4778 -84.1969 275° West 448 516 43,000  Level Chicago Center
06:48PM 41.4828 -84.3622 272° West 446 513 43,000  Level Chicago Center
06:49PM 41.4875 -84.5244 272° West 440 506 43,000  Level Chicago Center
06:50PM 41.4925 -84.7211 272° West 443 510 43,000  Level Chicago Center
06:51PM 41.4964 -84.8878 272° West 448 516 43,000  Level Chicago Center
06:52PM 41.5008 -85.0561 272° West 453 521 43,000  Level Chicago Center
06:53PM 41.5036 -85.2236 271° West 451 519 43,000  Level Chicago Center
06:54PM 41.5075 -85.3947 272° West 453 521 43,000  Level Chicago Center
06:55PM 41.5108 -85.5683 272° West 454 522 43,000  Level Chicago Center
06:56PM 41.5136 -85.7356 271° West 448 516 43,000  Level Chicago Center
06:57PM 41.5169 -85.8989 272° West 441 507 43,000  Level Chicago Center
06:58PM 41.5192 -86.0642 271° West 443 510 43,000 420 Level Chicago Center
06:59PM 41.5214 -86.2286 271° West 442 509 43,900 780 Climbing Chicago Center
07:00PM 41.5231 -86.3933 271° West 442 509 44,700 480 Climbing Chicago Center
07:02PM 41.4953 -86.5544 257° West 444 511 45,000 120 Climbing Chicago Center
07:03PM 41.4542 -86.7358 253° West 451 519 45,000  Level Chicago Center
07:04PM 41.4175 -86.8953 253° West 453 521 45,000  Level Chicago Center
07:05PM 41.3842 -87.0586 255° West 456 525 45,000  Level Chicago Center
07:06PM 41.3494 -87.2236 254° West 463 533 45,000  Level Chicago Center
07:07PM 41.3100 -87.3869 252° West 463 533 45,000  Level Chicago Center
07:08PM 41.2703 -87.5506 252° West 465 535 45,000  Level Chicago Center
07:09PM 41.2119 -87.7417 248° West 464 534 45,000  Level Chicago Center
07:10PM 41.1625 -87.8964 247° West 454 522 45,000  Level Chicago Center
07:11PM 41.1139 -88.0506 247° West 450 518 45,000  Level Chicago Center
07:12PM 41.0742 -88.2075 251° West 446 513 45,000  Level Chicago Center
07:13PM 41.0697 -88.3767 268° West 457 526 45,000  Level Chicago Center
07:14PM 41.0669 -88.5447 269° West 456 525 45,000  Level Chicago Center
07:15PM 41.0622 -88.7094 268° West 451 519 45,000  Level Chicago Center
07:16PM 41.0575 -88.8744 268° West 450 518 45,000  Level Chicago Center
07:17PM 41.0536 -89.0400 268° West 452 520 45,000  Level Chicago Center
07:18PM 41.0569 -89.1975 272° West 451 519 45,000  Level Chicago Center
07:19PM 41.0597 -89.3936 271° West 448 516 45,000  Level Chicago Center
07:20PM 41.0619 -89.5611 271° West 455 524 45,000  Level Chicago Center
07:22PM 41.0658 -89.8981 271° West 464 534 45,000  Level Chicago Center
07:23PM 41.0675 -90.0675 271° West 466 536 45,000  Level Chicago Center
07:24PM 41.0675 -90.2364 270° West 466 536 45,000  Level Chicago Center
07:25PM 41.0667 -90.4083 270° West 469 540 45,000  Level Chicago Center
07:26PM 41.0675 -90.5786 270° West 466 536 45,000  Level Chicago Center
07:27PM 41.0669 -90.7864 270° West 472 543 45,000  Level Chicago Center
07:28PM 41.0672 -90.9561 270° West 465 535 45,000  Level Chicago Center
07:29PM 41.0667 -91.1203 270° West 453 521 45,000  Level Chicago Center
07:30PM 41.0667 -91.2864 270° West 450 518 45,000  Level Chicago Center
07:31PM 41.0656 -91.4536 270° West 454 522 45,000  Level Chicago Center
07:32PM 41.0653 -91.6208 270° West 456 525 45,000  Level Chicago Center
07:33PM 41.0636 -91.7897 269° West 454 522 45,000  Level Chicago Center
07:34PM 41.0619 -91.9550 269° West 453 521 45,000  Level Chicago Center
07:35PM 41.0600 -92.1225 269° West 460 529 45,000  Level Chicago Center
07:36PM 41.0578 -92.3225 269° West 458 527 45,000  Level Chicago Center
07:37PM 41.0556 -92.4889 269° West 457 526 45,000  Level Chicago Center
07:38PM 41.0525 -92.6550 269° West 457 526 45,000  Level Chicago Center
07:39PM 41.0503 -92.8200 269° West 456 525 45,000  Level Chicago Center
07:40PM 41.0475 -92.9850 269° West 455 524 45,000  Level Chicago Center
07:41PM 41.0436 -93.1500 268° West 455 524 45,000  Level Chicago Center
07:42PM 41.0428 -93.2150 269° West 452 520 45,000  Level Minneapolis Center
07:43PM 41.0403 -93.4103 269° West 449 517 45,000  Level Minneapolis Center
07:44PM 41.0367 -93.5756 268° West 453 521 45,000  Level Minneapolis Center
07:45PM 41.0319 -93.7406 268° West 453 521 45,000  Level Minneapolis Center
07:46PM 41.0278 -93.9025 268° West 450 518 45,000  Level Minneapolis Center
07:47PM 41.0233 -94.0644 268° West 446 513 45,000  Level Minneapolis Center
07:48PM 41.0181 -94.2606 268° West 448 516 45,000  Level Minneapolis Center
07:49PM 41.0136 -94.4242 268° West 449 517 45,000  Level Minneapolis Center
07:50PM 41.0069 -94.5783 267° West 450 518 45,000  Level Minneapolis Center
07:51PM 41.0006 -94.7442 267° West 451 519 45,000 60 Level Minneapolis Center
07:52PM 40.9936 -94.9450 267° West 453 521 45,200 420 Climbing Minneapolis Center
07:53PM 40.9878 -95.1108 267° West 451 519 45,900 540 Climbing Minneapolis Center
07:54PM 40.9806 -95.2742 267° West 446 513 46,400 300 Climbing Minneapolis Center
07:55PM 40.9742 -95.4403 267° West 447 514 46,600 180 Climbing Minneapolis Center
07:56PM 40.9669 -95.6078 267° West 449 517 46,800 180 Climbing Minneapolis Center
07:57PM 40.9592 -95.7767 267° West 455 524 47,000 60 Climbing Minneapolis Center
07:58PM 40.9517 -95.9450 267° West 455 524 47,000  Level Minneapolis Center
07:59PM 40.9442 -96.1111 267° West 451 519 47,000  Level Minneapolis Center
08:00PM 40.9375 -96.2794 267° West 453 521 47,000  Level Minneapolis Center
08:01PM 40.9297 -96.4469 267° West 454 522 47,000  Level Minneapolis Center
08:02PM 40.9203 -96.6442 266° West 451 519 47,000  Level Minneapolis Center
08:03PM 40.9119 -96.8086 266° West 448 516 47,000  Level Minneapolis Center
08:04PM 40.9031 -96.9728 266° West 448 516 47,000  Level Minneapolis Center
08:05PM 40.8936 -97.1372 266° West 448 516 47,000  Level Minneapolis Center
08:06PM 40.8842 -97.3014 266° West 448 516 47,000  Level Minneapolis Center
08:07PM 40.8744 -97.4661 266° West 450 518 47,000  Level Minneapolis Center
08:08PM 40.8656 -97.6336 266° West 453 521 47,000  Level Minneapolis Center
08:09PM 40.8533 -97.8358 265° West 456 525 47,000  Level Minneapolis Center
08:11PM 40.8431 -98.0042 265° West 459 528 47,000  Level Minneapolis Center
08:12PM 40.8319 -98.1756 265° West 462 532 47,000  Level Minneapolis Center
08:13PM 40.8214 -98.3464 265° West 464 534 47,000  Level Minneapolis Center
08:14PM 40.8092 -98.5161 265° West 467 537 47,000  Level Minneapolis Center
08:15PM 40.7978 -98.6864 265° West 467 537 47,000  Level Minneapolis Center
08:16PM 40.7831 -98.8567 264° West 467 537 47,000  Level Minneapolis Center
08:17PM 40.6919 -98.9936 229° Southwest 470 541 47,000  Level Minneapolis Center
08:18PM 40.6119 -99.1264 232° Southwest 468 539 47,000  Level Minneapolis Center
08:19PM 40.5914 -99.2939 261° West 459 528 47,000  Level Minneapolis Center
08:20PM 40.5756 -99.4628 263° West 462 532 47,000  Level Minneapolis Center
08:21PM 40.5556 -99.6633 263° West 461 531 47,000  Level Minneapolis Center
08:22PM 40.5411 -99.8283 263° West 455 524 47,000  Level Minneapolis Center
08:23PM 40.5208 -100.0161 262° West 451 519 47,000  Level Denver Center
08:24PM 40.5042 -100.1736 262° West 453 521 47,000  Level Denver Center
08:25PM 40.4858 -100.3572 263° West 452 520 47,000  Level Denver Center
08:26PM 40.4686 -100.5139 262° West 450 518 47,000  Level Denver Center
08:27PM 40.4525 -100.6722 262° West 453 521 47,000  Level Denver Center
08:28PM 40.4319 -100.8567 262° West 455 524 47,000  Level Denver Center
08:29PM 40.4136 -101.0156 261° West 456 525 47,000  Level Denver Center
08:30PM 40.3931 -101.2019 262° West 459 528 47,000  Level Denver Center
08:31PM 40.3758 -101.3619 262° West 461 531 47,000  Level Denver Center
08:32PM 40.3578 -101.5233 262° West 466 536 47,000  Level Denver Center
08:33PM 40.3361 -101.7119 261° West 468 539 47,000  Level Denver Center
08:34PM 40.3167 -101.8728 261° West 468 539 47,000  Level Denver Center
08:35PM 40.2933 -102.0606 261° West 469 540 47,000  Level Denver Center
08:36PM 40.2750 -102.2231 262° West 469 540 47,000  Level Denver Center
08:37PM 40.2519 -102.4097 261° West 466 536 47,000  Level Denver Center
08:38PM 40.2325 -102.5711 261° West 469 540 47,000  Level Denver Center
08:39PM 40.2139 -102.7214 261° West 465 535 47,000  Level Denver Center
08:40PM 40.1875 -102.9211 260° West 466 536 47,000  Level Denver Center
08:41PM 40.1675 -103.0875 261° West 465 535 47,000  Level Denver Center
08:43PM 40.1500 -103.2556 262° West 468 539 47,000  Level Denver Center
08:44PM 40.1447 -103.4264 268° West 471 542 47,000  Level Denver Center
08:45PM 40.1406 -103.5975 268° West 472 543 47,000  Level Denver Center
08:46PM 40.1350 -103.7689 268° West 480 552 47,000 -120 Level Denver Center
08:47PM 40.1275 -103.9389 267° West 469 540 46,800 -1,140 Descending Denver Center
08:48PM 40.1200 -104.1436 267° West 471 542 44,700 -2,160 Descending Denver Center
08:49PM 40.1128 -104.3086 267° West 459 528 42,400 -2,160 Descending Denver Center
08:50PM 40.1064 -104.4675 267° West 443 510 40,300 -2,040 Descending Denver Center
08:51PM 40.1006 -104.6175 267° West 421 484 38,300 -1,980 Descending Denver Center
08:52PM 40.0939 -104.7625 267° West 406 467 36,300 -1,920 Descending Denver Center
08:53PM 40.0864 -104.9064 266° West 400 460 34,400 -2,100 Descending Denver Center
08:54PM 40.0772 -105.0831 266° West 408 470 32,000 -2,160 Descending Denver Center
08:55PM 40.0703 -105.2306 267° West 411 473 30,000 -1,980 Descending Denver Center
08:56PM 40.0619 -105.3786 266° West 411 473 28,000 -1,980 Descending Denver Center
08:57PM 40.0542 -105.5208 266° West 397 457 26,000 -1,980 Descending Denver Center
08:58PM 40.0467 -105.6714 266° West 393 452 24,000 -2,040 Descending Denver Center
08:59PM 40.0408 -105.8242 267° West 390 449 21,900 -1,980 Descending Denver Center
09:00PM 40.0292 -105.9672 264° West 383 441 20,000 -1,680 Descending Denver Center
09:01PM 40.0236 -106.0878 267° West 339 390 18,500 -1,320 Descending Denver Center
09:02PM 40.0178 -106.1814 265° West 317 365 17,400 -1,380 Descending Denver Center
09:03PM 40.0128 -106.2994 267° West 283 326 15,700 -1,380 Descending Denver Center
09:04PM 40.0081 -106.3858 266° West 263 303 14,600 -840 Descending Denver Center
09:05PM 39.9792 -106.4539 241° Southwest 246 283 14,000 -300 Descending Denver Center
09:06PM 39.9175 -106.4797 198° South 237 273 14,000  Level Denver Center
09:07PM 39.8547 -106.5056 198° South 235 270 14,000  Level Denver Center
09:08PM 39.7925 -106.5319 198° South 234 269 14,000 -300 Level Denver Center
09:09PM 39.7178 -106.5622 197° South 234 269 13,500 -960 Descending Denver Center
09:10PM 39.6853 -106.6292 238° Southwest 198 228 12,100 -1,380 Descending Denver Center